sensor_id;sensor_type;location;lat;lon;timestamp;pressure;altitude;pressure_sealevel;temperature;humidity
73103;BME280;61294;65.988;29.172;2023-05-21T00:02:10;99467.88;;;9.22;60.21
73103;BME280;61294;65.988;29.172;2023-05-21T00:04:46;99464.22;;;9.12;60.82
73103;BME280;61294;65.988;29.172;2023-05-21T00:07:17;99474.50;;;8.97;61.33
73103;BME280;61294;65.988;29.172;2023-05-21T00:09:43;99449.03;;;8.91;61.17
73103;BME280;61294;65.988;29.172;2023-05-21T00:12:20;99456.09;;;8.95;61.10
73103;BME280;61294;65.988;29.172;2023-05-21T00:15:15;99491.00;;;8.87;61.62
73103;BME280;61294;65.988;29.172;2023-05-21T00:18:01;99489.81;;;8.69;62.53
73103;BME280;61294;65.988;29.172;2023-05-21T00:20:31;99509.22;;;8.77;63.00
73103;BME280;61294;65.988;29.172;2023-05-21T00:23:02;99481.75;;;8.55;63.50
73103;BME280;61294;65.988;29.172;2023-05-21T00:29:31;99486.22;;;8.62;63.42
73103;BME280;61294;65.988;29.172;2023-05-21T00:34:53;99467.75;;;8.58;63.08
73103;BME280;61294;65.988;29.172;2023-05-21T00:37:34;99530.53;;;8.96;63.66
73103;BME280;61294;65.988;29.172;2023-05-21T00:40:16;99540.91;;;8.87;63.72
73103;BME280;61294;65.988;29.172;2023-05-21T00:42:53;99513.59;;;8.77;63.57
73103;BME280;61294;65.988;29.172;2023-05-21T00:45:21;99539.88;;;8.77;64.02
73103;BME280;61294;65.988;29.172;2023-05-21T00:47:50;99465.66;;;8.38;65.28
73103;BME280;61294;65.988;29.172;2023-05-21T00:50:20;99504.78;;;8.75;64.75
73103;BME280;61294;65.988;29.172;2023-05-21T00:52:46;99532.09;;;8.85;64.27
73103;BME280;61294;65.988;29.172;2023-05-21T00:55:13;99512.66;;;8.73;64.57
73103;BME280;61294;65.988;29.172;2023-05-21T00:57:39;99521.59;;;8.85;65.20
73103;BME280;61294;65.988;29.172;2023-05-21T01:00:07;99484.44;;;8.60;64.78
73103;BME280;61294;65.988;29.172;2023-05-21T01:02:35;99517.78;;;8.64;65.69
73103;BME280;61294;65.988;29.172;2023-05-21T01:05:03;99534.63;;;8.77;65.79
73103;BME280;61294;65.988;29.172;2023-05-21T01:07:30;99538.06;;;8.74;66.03
73103;BME280;61294;65.988;29.172;2023-05-21T01:10:00;99544.34;;;8.83;65.89
73103;BME280;61294;65.988;29.172;2023-05-21T01:12:28;99504.63;;;8.62;65.36
73103;BME280;61294;65.988;29.172;2023-05-21T01:14:56;99526.72;;;8.75;65.45
73103;BME280;61294;65.988;29.172;2023-05-21T01:17:28;99525.88;;;8.78;65.74
73103;BME280;61294;65.988;29.172;2023-05-21T01:19:57;99520.66;;;8.79;65.80
73103;BME280;61294;65.988;29.172;2023-05-21T01:22:34;99527.56;;;8.74;66.09
73103;BME280;61294;65.988;29.172;2023-05-21T01:25:00;99542.81;;;8.97;65.93
73103;BME280;61294;65.988;29.172;2023-05-21T01:27:27;99561.22;;;8.97;65.40
73103;BME280;61294;65.988;29.172;2023-05-21T01:29:52;99487.19;;;8.69;65.24
73103;BME280;61294;65.988;29.172;2023-05-21T01:35:07;99495.16;;;8.74;65.27
73103;BME280;61294;65.988;29.172;2023-05-21T01:37:42;99548.97;;;8.97;64.78
73103;BME280;61294;65.988;29.172;2023-05-21T01:40:28;99538.50;;;9.01;65.05
73103;BME280;61294;65.988;29.172;2023-05-21T01:42:55;99536.63;;;8.93;65.93
73103;BME280;61294;65.988;29.172;2023-05-21T01:45:23;99550.72;;;8.97;65.59
73103;BME280;61294;65.988;29.172;2023-05-21T01:47:52;99532.34;;;8.98;65.74
73103;BME280;61294;65.988;29.172;2023-05-21T01:50:19;99542.63;;;8.85;67.24
73103;BME280;61294;65.988;29.172;2023-05-21T01:52:54;99500.44;;;8.74;66.84
73103;BME280;61294;65.988;29.172;2023-05-21T01:55:21;99533.13;;;8.93;67.08
73103;BME280;61294;65.988;29.172;2023-05-21T01:57:54;99495.22;;;8.77;66.90
73103;BME280;61294;65.988;29.172;2023-05-21T02:00:21;99482.00;;;8.71;66.59
73103;BME280;61294;65.988;29.172;2023-05-21T02:02:48;99527.84;;;8.91;66.95
73103;BME280;61294;65.988;29.172;2023-05-21T02:05:13;99490.53;;;8.59;66.82
73103;BME280;61294;65.988;29.172;2023-05-21T02:07:39;99494.28;;;8.73;67.10
73103;BME280;61294;65.988;29.172;2023-05-21T02:10:06;99502.94;;;8.69;67.65
73103;BME280;61294;65.988;29.172;2023-05-21T02:12:32;99534.84;;;8.91;66.89
73103;BME280;61294;65.988;29.172;2023-05-21T02:14:57;99541.22;;;9.05;66.27
73103;BME280;61294;65.988;29.172;2023-05-21T02:17:24;99521.81;;;8.97;66.43
73103;BME280;61294;65.988;29.172;2023-05-21T02:19:50;99516.50;;;8.94;66.77
73103;BME280;61294;65.988;29.172;2023-05-21T02:22:16;99542.28;;;9.18;66.48
73103;BME280;61294;65.988;29.172;2023-05-21T02:24:42;99546.50;;;9.08;66.66
73103;BME280;61294;65.988;29.172;2023-05-21T02:27:08;99528.66;;;8.89;67.58
73103;BME280;61294;65.988;29.172;2023-05-21T02:29:35;99543.06;;;9.12;66.80
73103;BME280;61294;65.988;29.172;2023-05-21T02:32:01;99542.34;;;9.23;66.45
73103;BME280;61294;65.988;29.172;2023-05-21T02:34:27;99520.34;;;9.18;66.63
73103;BME280;61294;65.988;29.172;2023-05-21T02:37:06;99554.63;;;9.22;67.03
73103;BME280;61294;65.988;29.172;2023-05-21T02:39:36;99530.88;;;9.18;66.69
73103;BME280;61294;65.988;29.172;2023-05-21T02:42:04;99547.66;;;9.26;67.19
73103;BME280;61294;65.988;29.172;2023-05-21T02:44:30;99535.44;;;9.29;67.37
73103;BME280;61294;65.988;29.172;2023-05-21T02:46:55;99544.19;;;9.28;67.42
73103;BME280;61294;65.988;29.172;2023-05-21T02:49:21;99546.91;;;9.36;67.02
73103;BME280;61294;65.988;29.172;2023-05-21T02:51:47;99547.81;;;9.37;67.58
73103;BME280;61294;65.988;29.172;2023-05-21T02:54:13;99511.50;;;9.11;68.06
73103;BME280;61294;65.988;29.172;2023-05-21T02:56:39;99554.88;;;9.39;67.75
73103;BME280;61294;65.988;29.172;2023-05-21T02:59:05;99541.84;;;9.50;67.15
73103;BME280;61294;65.988;29.172;2023-05-21T03:01:31;99547.13;;;9.52;67.57
73103;BME280;61294;65.988;29.172;2023-05-21T03:03:56;99553.38;;;9.58;67.45
73103;BME280;61294;65.988;29.172;2023-05-21T03:06:22;99543.81;;;9.63;67.34
73103;BME280;61294;65.988;29.172;2023-05-21T03:08:48;99549.88;;;9.59;68.00
73103;BME280;61294;65.988;29.172;2023-05-21T03:11:14;99547.31;;;9.64;68.00
73103;BME280;61294;65.988;29.172;2023-05-21T03:13:39;99548.28;;;9.69;67.77
73103;BME280;61294;65.988;29.172;2023-05-21T03:16:06;99556.25;;;9.77;67.74
73103;BME280;61294;65.988;29.172;2023-05-21T03:18:32;99549.25;;;9.79;68.08
73103;BME280;61294;65.988;29.172;2023-05-21T03:20:58;99544.78;;;9.72;68.29
73103;BME280;61294;65.988;29.172;2023-05-21T03:23:23;99536.88;;;9.72;68.50
73103;BME280;61294;65.988;29.172;2023-05-21T03:25:50;99551.97;;;9.85;68.09
73103;BME280;61294;65.988;29.172;2023-05-21T03:28:15;99547.56;;;9.84;68.86
73103;BME280;61294;65.988;29.172;2023-05-21T03:30:42;99540.63;;;9.88;67.83
73103;BME280;61294;65.988;29.172;2023-05-21T03:33:12;99544.16;;;9.93;68.43
73103;BME280;61294;65.988;29.172;2023-05-21T03:35:38;99549.47;;;9.97;68.52
73103;BME280;61294;65.988;29.172;2023-05-21T03:38:04;99546.94;;;10.04;68.44
73103;BME280;61294;65.988;29.172;2023-05-21T03:40:30;99553.13;;;10.09;68.37
73103;BME280;61294;65.988;29.172;2023-05-21T03:42:55;99513.53;;;9.96;68.39
73103;BME280;61294;65.988;29.172;2023-05-21T03:45:21;99547.91;;;10.12;68.21
73103;BME280;61294;65.988;29.172;2023-05-21T03:47:47;99530.38;;;10.12;68.10
73103;BME280;61294;65.988;29.172;2023-05-21T03:50:13;99550.72;;;10.29;67.82
73103;BME280;61294;65.988;29.172;2023-05-21T03:52:39;99551.56;;;10.25;67.81
73103;BME280;61294;65.988;29.172;2023-05-21T03:55:05;99551.69;;;10.34;67.41
73103;BME280;61294;65.988;29.172;2023-05-21T03:57:31;99553.53;;;10.43;67.49
73103;BME280;61294;65.988;29.172;2023-05-21T03:59:57;99550.09;;;10.50;67.41
73103;BME280;61294;65.988;29.172;2023-05-21T04:02:26;99513.97;;;10.36;66.77
73103;BME280;61294;65.988;29.172;2023-05-21T04:04:52;99542.31;;;10.62;66.15
73103;BME280;61294;65.988;29.172;2023-05-21T04:07:18;99546.78;;;10.69;66.49
73103;BME280;61294;65.988;29.172;2023-05-21T04:09:44;99539.00;;;10.82;66.39
73103;BME280;61294;65.988;29.172;2023-05-21T04:12:10;99515.19;;;10.74;66.22
73103;BME280;61294;65.988;29.172;2023-05-21T04:14:36;99544.31;;;10.90;66.34
73103;BME280;61294;65.988;29.172;2023-05-21T04:17:02;99547.88;;;10.95;65.91
73103;BME280;61294;65.988;29.172;2023-05-21T04:19:30;99540.03;;;11.02;65.54
73103;BME280;61294;65.988;29.172;2023-05-21T04:21:56;99542.69;;;11.09;65.34
73103;BME280;61294;65.988;29.172;2023-05-21T04:24:22;99554.19;;;11.15;65.14
73103;BME280;61294;65.988;29.172;2023-05-21T04:26:48;99545.41;;;11.16;64.96
73103;BME280;61294;65.988;29.172;2023-05-21T04:29:15;99548.91;;;11.17;65.27
73103;BME280;61294;65.988;29.172;2023-05-21T04:31:46;99549.00;;;11.25;64.79
73103;BME280;61294;65.988;29.172;2023-05-21T04:34:12;99550.78;;;11.30;64.33
73103;BME280;61294;65.988;29.172;2023-05-21T04:36:40;99550.78;;;11.30;64.78
73103;BME280;61294;65.988;29.172;2023-05-21T04:39:06;99526.03;;;11.13;64.33
73103;BME280;61294;65.988;29.172;2023-05-21T04:41:31;99529.56;;;11.15;65.22
73103;BME280;61294;65.988;29.172;2023-05-21T04:43:57;99555.13;;;11.27;64.77
73103;BME280;61294;65.988;29.172;2023-05-21T04:46:23;99552.50;;;11.28;65.25
73103;BME280;61294;65.988;29.172;2023-05-21T04:48:54;99573.69;;;11.37;64.74
73103;BME280;61294;65.988;29.172;2023-05-21T04:51:21;99536.69;;;11.28;64.40
73103;BME280;61294;65.988;29.172;2023-05-21T04:53:48;99562.28;;;11.42;64.26
73103;BME280;61294;65.988;29.172;2023-05-21T04:56:17;99549.97;;;11.39;64.37
73103;BME280;61294;65.988;29.172;2023-05-21T04:58:44;99558.72;;;11.36;64.55
73103;BME280;61294;65.988;29.172;2023-05-21T05:01:10;99558.75;;;11.41;64.26
73103;BME280;61294;65.988;29.172;2023-05-21T05:03:37;99547.34;;;11.45;64.17
73103;BME280;61294;65.988;29.172;2023-05-21T05:06:03;99543.78;;;11.40;64.44
73103;BME280;61294;65.988;29.172;2023-05-21T05:08:29;99559.69;;;11.51;64.08
73103;BME280;61294;65.988;29.172;2023-05-21T05:10:55;99546.47;;;11.43;63.52
73103;BME280;61294;65.988;29.172;2023-05-21T05:13:21;99560.66;;;11.65;63.91
73103;BME280;61294;65.988;29.172;2023-05-21T05:15:46;99570.38;;;11.77;63.60
73103;BME280;61294;65.988;29.172;2023-05-21T05:18:12;99573.06;;;11.80;63.49
73103;BME280;61294;65.988;29.172;2023-05-21T05:20:38;99561.59;;;11.73;63.35
73103;BME280;61294;65.988;29.172;2023-05-21T05:23:04;99569.50;;;11.73;63.09
73103;BME280;61294;65.988;29.172;2023-05-21T05:25:29;99566.00;;;11.71;63.38
73103;BME280;61294;65.988;29.172;2023-05-21T05:27:55;99566.00;;;11.74;63.23
73103;BME280;61294;65.988;29.172;2023-05-21T05:30:21;99544.91;;;11.78;63.39
73103;BME280;61294;65.988;29.172;2023-05-21T05:32:46;99562.63;;;12.02;62.18
73103;BME280;61294;65.988;29.172;2023-05-21T05:35:12;99567.06;;;12.12;62.06
73103;BME280;61294;65.988;29.172;2023-05-21T05:37:38;99554.72;;;12.08;61.70
73103;BME280;61294;65.988;29.172;2023-05-21T05:40:04;99537.94;;;11.97;61.99
73103;BME280;61294;65.988;29.172;2023-05-21T05:42:30;99560.91;;;12.13;61.86
73103;BME280;61294;65.988;29.172;2023-05-21T05:44:56;99553.88;;;12.18;61.20
73103;BME280;61294;65.988;29.172;2023-05-21T05:47:22;99551.25;;;12.21;61.89
73103;BME280;61294;65.988;29.172;2023-05-21T05:49:48;99555.69;;;12.42;61.06
73103;BME280;61294;65.988;29.172;2023-05-21T05:52:14;99546.03;;;12.51;60.65
73103;BME280;61294;65.988;29.172;2023-05-21T05:54:40;99553.09;;;12.56;60.70
73103;BME280;61294;65.988;29.172;2023-05-21T05:57:06;99556.63;;;12.57;60.66
73103;BME280;61294;65.988;29.172;2023-05-21T05:59:32;99551.34;;;12.69;60.36
73103;BME280;61294;65.988;29.172;2023-05-21T06:01:59;99546.06;;;12.74;59.88
73103;BME280;61294;65.988;29.172;2023-05-21T06:04:25;99556.66;;;12.77;59.20
73103;BME280;61294;65.988;29.172;2023-05-21T06:06:55;99559.31;;;12.97;59.25
73103;BME280;61294;65.988;29.172;2023-05-21T06:09:22;99551.34;;;13.09;59.07
73103;BME280;61294;65.988;29.172;2023-05-21T06:11:48;99551.38;;;13.05;59.19
73103;BME280;61294;65.988;29.172;2023-05-21T06:14:14;99559.28;;;13.08;58.45
73103;BME280;61294;65.988;29.172;2023-05-21T06:16:40;99553.13;;;13.20;58.07
73103;BME280;61294;65.988;29.172;2023-05-21T06:19:06;99557.53;;;13.19;57.64
73103;BME280;61294;65.988;29.172;2023-05-21T06:21:32;99527.56;;;13.14;56.39
73103;BME280;61294;65.988;29.172;2023-05-21T06:23:58;99547.81;;;13.30;56.59
73103;BME280;61294;65.988;29.172;2023-05-21T06:26:24;99544.28;;;13.32;56.48
73103;BME280;61294;65.988;29.172;2023-05-21T06:28:49;99543.44;;;13.37;56.19
73103;BME280;61294;65.988;29.172;2023-05-21T06:31:15;99526.66;;;13.30;55.68
73103;BME280;61294;65.988;29.172;2023-05-21T06:33:41;99545.16;;;13.49;56.21
73103;BME280;61294;65.988;29.172;2023-05-21T06:36:07;99549.59;;;13.50;56.33
73103;BME280;61294;65.988;29.172;2023-05-21T06:38:33;99527.53;;;13.42;56.00
73103;BME280;61294;65.988;29.172;2023-05-21T06:40:58;99556.59;;;13.65;55.40
73103;BME280;61294;65.988;29.172;2023-05-21T06:43:24;99546.84;;;13.75;55.16
73103;BME280;61294;65.988;29.172;2023-05-21T06:45:50;99551.25;;;13.90;54.56
73103;BME280;61294;65.988;29.172;2023-05-21T06:48:16;99541.53;;;13.79;54.44
73103;BME280;61294;65.988;29.172;2023-05-21T06:50:42;99542.34;;;14.00;54.66
73103;BME280;61294;65.988;29.172;2023-05-21T06:53:08;99544.97;;;14.05;54.42
73103;BME280;61294;65.988;29.172;2023-05-21T06:55:34;99540.59;;;13.96;54.22
73103;BME280;61294;65.988;29.172;2023-05-21T06:58:00;99544.97;;;14.14;54.47
73103;BME280;61294;65.988;29.172;2023-05-21T07:00:26;99549.31;;;14.23;54.21
73103;BME280;61294;65.988;29.172;2023-05-21T07:02:52;99544.81;;;14.39;52.57
73103;BME280;61294;65.988;29.172;2023-05-21T07:05:18;99538.59;;;14.44;52.32
73103;BME280;61294;65.988;29.172;2023-05-21T07:07:44;99539.44;;;14.46;52.04
73103;BME280;61294;65.988;29.172;2023-05-21T07:10:10;99541.19;;;14.50;52.24
73103;BME280;61294;65.988;29.172;2023-05-21T07:12:36;99549.09;;;14.61;51.42
73103;BME280;61294;65.988;29.172;2023-05-21T07:15:01;99538.50;;;14.58;51.61
73103;BME280;61294;65.988;29.172;2023-05-21T07:17:27;99536.75;;;14.62;51.88
73103;BME280;61294;65.988;29.172;2023-05-21T07:19:53;99542.84;;;14.75;51.38
73103;BME280;61294;65.988;29.172;2023-05-21T07:22:19;99522.50;;;14.77;51.30
73103;BME280;61294;65.988;29.172;2023-05-21T07:24:45;99513.50;;;14.98;50.91
73103;BME280;61294;65.988;29.172;2023-05-21T07:27:10;99522.06;;;15.25;50.24
73103;BME280;61294;65.988;29.172;2023-05-21T07:29:36;99538.00;;;15.25;49.68
73103;BME280;61294;65.988;29.172;2023-05-21T07:32:02;99532.66;;;15.29;48.97
73103;BME280;61294;65.988;29.172;2023-05-21T07:34:28;99535.28;;;15.32;50.30
73103;BME280;61294;65.988;29.172;2023-05-21T07:36:54;99542.34;;;15.35;50.52
73103;BME280;61294;65.988;29.172;2023-05-21T07:39:19;99548.47;;;15.40;49.53
73103;BME280;61294;65.988;29.172;2023-05-21T07:41:45;99533.47;;;15.39;49.17
73103;BME280;61294;65.988;29.172;2023-05-21T07:44:11;99540.47;;;15.43;49.03
73103;BME280;61294;65.988;29.172;2023-05-21T07:46:37;99533.25;;;15.56;48.65
73103;BME280;61294;65.988;29.172;2023-05-21T07:49:02;99530.59;;;15.56;49.52
73103;BME280;61294;65.988;29.172;2023-05-21T07:51:28;99533.25;;;15.59;49.43
73103;BME280;61294;65.988;29.172;2023-05-21T07:53:54;99533.22;;;15.61;48.55
73103;BME280;61294;65.988;29.172;2023-05-21T07:56:20;99533.09;;;15.70;46.77
73103;BME280;61294;65.988;29.172;2023-05-21T07:58:47;99527.72;;;15.79;48.20
73103;BME280;61294;65.988;29.172;2023-05-21T08:01:13;99532.88;;;15.92;47.71
73103;BME280;61294;65.988;29.172;2023-05-21T08:03:38;99534.59;;;15.96;48.61
73103;BME280;61294;65.988;29.172;2023-05-21T08:06:04;99535.50;;;15.93;46.88
73103;BME280;61294;65.988;29.172;2023-05-21T08:08:31;99519.47;;;16.02;47.79
73103;BME280;61294;65.988;29.172;2023-05-21T08:10:57;99519.38;;;16.09;47.96
73103;BME280;61294;65.988;29.172;2023-05-21T08:13:22;99504.25;;;16.14;46.77
73103;BME280;61294;65.988;29.172;2023-05-21T08:15:48;99531.50;;;16.30;46.55
73103;BME280;61294;65.988;29.172;2023-05-21T08:18:14;99527.59;;;16.55;47.31
73103;BME280;61294;65.988;29.172;2023-05-21T08:20:42;99528.97;;;16.80;45.95
73103;BME280;61294;65.988;29.172;2023-05-21T08:23:07;99525.44;;;16.81;47.25
73103;BME280;61294;65.988;29.172;2023-05-21T08:25:33;99531.44;;;16.95;44.63
73103;BME280;61294;65.988;29.172;2023-05-21T08:28:00;99520.84;;;16.92;45.04
73103;BME280;61294;65.988;29.172;2023-05-21T08:30:26;99512.63;;;17.04;45.16
73103;BME280;61294;65.988;29.172;2023-05-21T08:32:52;99513.25;;;17.20;45.48
73103;BME280;61294;65.988;29.172;2023-05-21T08:35:19;99515.50;;;17.43;43.91
73103;BME280;61294;65.988;29.172;2023-05-21T08:37:44;99511.94;;;17.45;43.71
73103;BME280;61294;65.988;29.172;2023-05-21T08:40:10;99508.09;;;17.59;44.87
73103;BME280;61294;65.988;29.172;2023-05-21T08:42:48;99509.34;;;17.85;43.01
73103;BME280;61294;65.988;29.172;2023-05-21T08:45:23;99521.25;;;17.69;41.73
73103;BME280;61294;65.988;29.172;2023-05-21T08:47:59;99523.88;;;17.70;41.35
73103;BME280;61294;65.988;29.172;2023-05-21T08:50:26;99524.63;;;17.75;39.61
73103;BME280;61294;65.988;29.172;2023-05-21T08:52:52;99515.56;;;17.86;40.66
73103;BME280;61294;65.988;29.172;2023-05-21T08:55:20;99515.53;;;18.29;41.30
73103;BME280;61294;65.988;29.172;2023-05-21T08:57:47;99506.44;;;18.40;40.35
73103;BME280;61294;65.988;29.172;2023-05-21T09:00:13;99520.59;;;18.42;39.29
73103;BME280;61294;65.988;29.172;2023-05-21T09:02:40;99517.25;;;18.71;39.59
73103;BME280;61294;65.988;29.172;2023-05-21T09:05:08;99520.50;;;18.84;38.52
73103;BME280;61294;65.988;29.172;2023-05-21T09:07:46;99513.50;;;19.16;38.67
73103;BME280;61294;65.988;29.172;2023-05-21T09:10:13;99517.09;;;19.48;38.90
73103;BME280;61294;65.988;29.172;2023-05-21T09:12:39;99513.75;;;19.73;38.48
73103;BME280;61294;65.988;29.172;2023-05-21T09:15:05;99507.13;;;20.17;39.08
73103;BME280;61294;65.988;29.172;2023-05-21T09:17:32;99515.56;;;20.04;38.52
73103;BME280;61294;65.988;29.172;2023-05-21T09:20:13;99513.28;;;20.21;37.78
73103;BME280;61294;65.988;29.172;2023-05-21T09:22:44;99506.56;;;20.64;37.70
73103;BME280;61294;65.988;29.172;2023-05-21T09:25:11;99508.56;;;21.13;36.46
73103;BME280;61294;65.988;29.172;2023-05-21T09:27:37;99512.84;;;20.92;36.93
73103;BME280;61294;65.988;29.172;2023-05-21T09:30:08;99501.75;;;20.47;36.35
73103;BME280;61294;65.988;29.172;2023-05-21T09:32:34;99492.38;;;21.16;36.84
73103;BME280;61294;65.988;29.172;2023-05-21T09:35:07;99498.03;;;21.84;34.96
73103;BME280;61294;65.988;29.172;2023-05-21T09:37:52;99492.63;;;23.61;34.17
73103;BME280;61294;65.988;29.172;2023-05-21T09:40:19;99496.13;;;29.26;27.12
73103;BME280;61294;65.988;29.172;2023-05-21T09:42:47;99491.63;;;32.42;23.45
73103;BME280;61294;65.988;29.172;2023-05-21T09:45:20;99488.59;;;35.65;19.53
73103;BME280;61294;65.988;29.172;2023-05-21T09:47:48;99484.59;;;35.30;19.31
73103;BME280;61294;65.988;29.172;2023-05-21T09:50:26;99478.69;;;33.95;19.46
73103;BME280;61294;65.988;29.172;2023-05-21T09:52:53;99475.44;;;37.26;17.69
73103;BME280;61294;65.988;29.172;2023-05-21T09:55:24;99482.53;;;38.42;16.60
73103;BME280;61294;65.988;29.172;2023-05-21T09:57:51;99473.25;;;38.35;15.98
73103;BME280;61294;65.988;29.172;2023-05-21T10:00:22;99475.41;;;36.26;16.77
73103;BME280;61294;65.988;29.172;2023-05-21T10:02:52;99471.75;;;36.07;17.10
73103;BME280;61294;65.988;29.172;2023-05-21T10:05:19;99469.84;;;35.60;17.81
73103;BME280;61294;65.988;29.172;2023-05-21T10:07:50;99478.34;;;37.42;16.14
73103;BME280;61294;65.988;29.172;2023-05-21T10:10:18;99477.88;;;37.73;15.54
73103;BME280;61294;65.988;29.172;2023-05-21T10:12:46;99474.22;;;35.24;17.07
73103;BME280;61294;65.988;29.172;2023-05-21T10:15:19;99469.72;;;37.01;16.21
73103;BME280;61294;65.988;29.172;2023-05-21T10:17:47;99483.97;;;37.59;16.27
73103;BME280;61294;65.988;29.172;2023-05-21T10:20:13;99481.09;;;36.15;16.68
73103;BME280;61294;65.988;29.172;2023-05-21T10:22:41;99478.25;;;37.52;15.70
73103;BME280;61294;65.988;29.172;2023-05-21T10:25:07;99483.78;;;37.60;15.62
73103;BME280;61294;65.988;29.172;2023-05-21T10:27:36;99477.03;;;36.92;15.94
73103;BME280;61294;65.988;29.172;2023-05-21T10:30:04;99465.84;;;37.48;16.01
73103;BME280;61294;65.988;29.172;2023-05-21T10:32:30;99483.84;;;36.88;16.41
73103;BME280;61294;65.988;29.172;2023-05-21T10:34:57;99482.69;;;36.45;17.29
73103;BME280;61294;65.988;29.172;2023-05-21T10:37:24;99478.44;;;38.11;16.21
73103;BME280;61294;65.988;29.172;2023-05-21T10:39:54;99483.84;;;37.42;15.99
73103;BME280;61294;65.988;29.172;2023-05-21T10:42:45;99482.47;;;38.68;14.80
73103;BME280;61294;65.988;29.172;2023-05-21T10:45:35;99491.53;;;37.83;15.98
73103;BME280;61294;65.988;29.172;2023-05-21T10:48:34;99480.66;;;39.26;14.60
73103;BME280;61294;65.988;29.172;2023-05-21T10:54:03;99477.84;;;37.91;16.01
73103;BME280;61294;65.988;29.172;2023-05-21T11:01:56;99474.38;;;33.29;18.23
73103;BME280;61294;65.988;29.172;2023-05-21T11:04:25;99475.22;;;32.76;19.30
73103;BME280;61294;65.988;29.172;2023-05-21T11:06:52;99481.94;;;34.60;17.36
73103;BME280;61294;65.988;29.172;2023-05-21T11:09:17;99485.69;;;32.92;19.46
73103;BME280;61294;65.988;29.172;2023-05-21T11:11:50;99473.38;;;29.93;21.73
73103;BME280;61294;65.988;29.172;2023-05-21T11:14:37;99484.78;;;34.08;18.43
73103;BME280;61294;65.988;29.172;2023-05-21T11:17:11;99476.94;;;36.10;17.99
73103;BME280;61294;65.988;29.172;2023-05-21T11:19:44;99469.47;;;35.26;17.58
73103;BME280;61294;65.988;29.172;2023-05-21T11:22:22;99460.56;;;37.28;16.94
73103;BME280;61294;65.988;29.172;2023-05-21T11:24:48;99455.41;;;40.03;15.40
73103;BME280;61294;65.988;29.172;2023-05-21T11:27:49;99431.97;;;38.35;15.55
73103;BME280;61294;65.988;29.172;2023-05-21T11:30:17;99466.88;;;39.26;14.24
73103;BME280;61294;65.988;29.172;2023-05-21T11:38:10;99457.25;;;38.38;14.16
73103;BME280;61294;65.988;29.172;2023-05-21T11:40:36;99431.84;;;37.75;14.70
73103;BME280;61294;65.988;29.172;2023-05-21T11:43:02;99459.06;;;38.72;14.96
73103;BME280;61294;65.988;29.172;2023-05-21T11:45:29;99455.72;;;38.36;14.96
73103;BME280;61294;65.988;29.172;2023-05-21T11:47:56;99452.44;;;39.32;14.21
73103;BME280;61294;65.988;29.172;2023-05-21T11:50:22;99432.81;;;37.92;15.17
73103;BME280;61294;65.988;29.172;2023-05-21T11:52:48;99428.94;;;36.24;15.43
73103;BME280;61294;65.988;29.172;2023-05-21T11:55:20;99452.97;;;38.09;14.93
73103;BME280;61294;65.988;29.172;2023-05-21T11:57:46;99451.44;;;38.58;14.91
73103;BME280;61294;65.988;29.172;2023-05-21T12:00:14;99464.13;;;37.73;14.58
73103;BME280;61294;65.988;29.172;2023-05-21T12:02:45;99458.25;;;37.94;15.66
73103;BME280;61294;65.988;29.172;2023-05-21T12:05:11;99455.75;;;36.76;15.78
73103;BME280;61294;65.988;29.172;2023-05-21T12:07:37;99434.03;;;38.32;14.67
73103;BME280;61294;65.988;29.172;2023-05-21T12:10:03;99454.38;;;39.96;14.03
73103;BME280;61294;65.988;29.172;2023-05-21T12:12:30;99418.22;;;40.31;13.15
73103;BME280;61294;65.988;29.172;2023-05-21T12:14:57;99433.78;;;38.85;14.12
73103;BME280;61294;65.988;29.172;2023-05-21T12:17:24;99430.19;;;37.12;15.23
73103;BME280;61294;65.988;29.172;2023-05-21T12:19:54;99453.81;;;36.87;15.86
73103;BME280;61294;65.988;29.172;2023-05-21T12:22:22;99458.44;;;38.01;15.28
73103;BME280;61294;65.988;29.172;2023-05-21T12:24:49;99437.78;;;39.07;14.78
73103;BME280;61294;65.988;29.172;2023-05-21T12:27:15;99447.28;;;40.42;13.48
73103;BME280;61294;65.988;29.172;2023-05-21T12:29:49;99439.66;;;41.45;13.87
73103;BME280;61294;65.988;29.172;2023-05-21T12:32:16;99440.84;;;39.70;13.99
73103;BME280;61294;65.988;29.172;2023-05-21T12:40:02;99435.75;;;36.84;15.22
73103;BME280;61294;65.988;29.172;2023-05-21T12:42:37;99425.25;;;38.29;14.70
73103;BME280;61294;65.988;29.172;2023-05-21T12:45:06;99430.19;;;37.56;15.35
73103;BME280;61294;65.988;29.172;2023-05-21T12:47:35;99409.94;;;36.41;15.36
73103;BME280;61294;65.988;29.172;2023-05-21T12:50:03;99430.09;;;37.04;15.29
73103;BME280;61294;65.988;29.172;2023-05-21T12:52:32;99420.84;;;37.23;14.41
73103;BME280;61294;65.988;29.172;2023-05-21T12:54:58;99431.66;;;38.62;13.69
73103;BME280;61294;65.988;29.172;2023-05-21T12:57:35;99397.66;;;36.99;14.80
73103;BME280;61294;65.988;29.172;2023-05-21T13:00:07;99429.00;;;37.14;15.70
73103;BME280;61294;65.988;29.172;2023-05-21T13:02:38;99417.75;;;34.14;17.28
73103;BME280;61294;65.988;29.172;2023-05-21T13:05:09;99425.28;;;33.17;18.47
73103;BME280;61294;65.988;29.172;2023-05-21T13:07:36;99396.34;;;33.05;18.60
73103;BME280;61294;65.988;29.172;2023-05-21T13:10:03;99433.97;;;32.58;18.30
73103;BME280;61294;65.988;29.172;2023-05-21T13:12:31;99427.78;;;32.56;18.17
73103;BME280;61294;65.988;29.172;2023-05-21T13:14:58;99434.66;;;31.93;19.01
73103;BME280;61294;65.988;29.172;2023-05-21T13:17:25;99428.22;;;30.78;19.49
73103;BME280;61294;65.988;29.172;2023-05-21T13:20:14;99425.97;;;32.11;19.29
73103;BME280;61294;65.988;29.172;2023-05-21T13:22:41;99434.78;;;31.92;18.86
73103;BME280;61294;65.988;29.172;2023-05-21T13:25:09;99414.59;;;32.61;18.87
73103;BME280;61294;65.988;29.172;2023-05-21T13:27:40;99430.41;;;34.15;17.58